Time;durP1;ratioP1;P1;durP2;ratioP2;P2;SDS_P1;SDS_P2;PMS_P1;PMS_P2;Temp;Humidity;BMP_temperature;BMP_pressure;BME280_temperature;BME280_humidity;BME280_pressure;Samples;Min_cycle;Max_cycle;Signal;HPM_P1;HPM_P2
2021/10/22 00:01:41;;;;;;;4.00;0.80;;;11.20;99.90;;;;;;4994766;28;20535;-80
2021/10/22 00:04:08;;;;;;;2.87;0.70;;;11.20;99.90;;;;;;4994461;28;20185;-80
2021/10/22 00:06:33;;;;;;;2.10;1.00;;;11.10;99.90;;;;;;4979428;28;20172;-80
2021/10/22 00:08:59;;;;;;;3.80;0.77;;;11.10;99.90;;;;;;4993883;28;20195;-80
2021/10/22 00:11:25;;;;;;;4.97;1.10;;;11.10;99.90;;;;;;4978049;28;20675;-80
2021/10/22 00:13:51;;;;;;;3.90;0.90;;;11.10;99.90;;;;;;4979423;28;20205;-80
2021/10/22 00:16:17;;;;;;;1.83;0.80;;;11.10;99.90;;;;;;4978574;28;20197;-80
2021/10/22 00:18:43;;;;;;;1.80;0.60;;;11.20;99.90;;;;;;4979535;28;20187;-81
2021/10/22 00:21:09;;;;;;;3.10;0.73;;;11.20;99.90;;;;;;4979285;28;20553;-80
2021/10/22 00:23:34;;;;;;;3.37;1.17;;;11.20;99.90;;;;;;4976985;28;20214;-79
2021/10/22 00:26:00;;;;;;;2.50;0.70;;;11.10;99.90;;;;;;4978843;28;20187;-79
2021/10/22 00:28:26;;;;;;;2.63;0.60;;;11.10;99.90;;;;;;4978722;28;20188;-80
2021/10/22 00:30:51;;;;;;;5.53;1.13;;;11.00;99.90;;;;;;4993906;28;20181;-80
2021/10/22 00:33:17;;;;;;;5.10;0.70;;;11.10;99.90;;;;;;4978773;28;20215;-80
2021/10/22 00:35:43;;;;;;;3.20;0.97;;;11.10;99.90;;;;;;4978579;28;20179;-80
2021/10/22 00:38:08;;;;;;;3.80;0.97;;;11.20;99.90;;;;;;4978608;28;20186;-80
2021/10/22 00:40:34;;;;;;;2.97;0.80;;;11.10;99.90;;;;;;4994048;28;20237;-80
2021/10/22 00:43:01;;;;;;;2.63;0.80;;;11.00;99.90;;;;;;4996497;28;20200;-80
2021/10/22 00:45:27;;;;;;;4.60;1.10;;;11.10;99.90;;;;;;4977984;28;20182;-80
2021/10/22 00:47:52;;;;;;;4.10;1.10;;;11.00;99.90;;;;;;4978448;28;20210;-80
2021/10/22 00:50:19;;;;;;;5.97;1.20;;;11.10;99.90;;;;;;4978704;28;20198;-80
2021/10/22 00:52:46;;;;;;;5.50;0.90;;;11.10;99.90;;;;;;4979322;28;20210;-80
2021/10/22 00:55:12;;;;;;;5.33;1.00;;;11.10;99.90;;;;;;4978548;28;20208;-80
2021/10/22 00:57:42;;;;;;;2.80;0.80;;;11.20;99.90;;;;;;4978603;28;20558;-80
2021/10/22 01:00:09;;;;;;;3.87;0.93;;;11.20;99.90;;;;;;4978561;28;20203;-80
2021/10/22 01:02:40;;;;;;;5.97;1.10;;;11.10;99.90;;;;;;4978442;28;20222;-80
2021/10/22 01:05:10;;;;;;;4.13;1.03;;;11.10;99.90;;;;;;4978395;28;20172;-80
2021/10/22 01:07:38;;;;;;;4.17;1.20;;;11.20;99.90;;;;;;4978134;28;20189;-80
2021/10/22 01:10:05;;;;;;;3.23;0.70;;;11.20;99.90;;;;;;4993328;28;20263;-80
2021/10/22 01:12:31;;;;;;;5.13;1.17;;;11.10;99.90;;;;;;4978581;28;20705;-80
2021/10/22 01:14:59;;;;;;;2.50;0.73;;;11.00;99.90;;;;;;4978443;28;20215;-80
2021/10/22 01:17:31;;;;;;;1.90;0.90;;;11.00;99.90;;;;;;4993445;28;20306;-80
2021/10/22 01:19:56;;;;;;;4.93;0.80;;;11.00;99.90;;;;;;4978453;28;20210;-80
2021/10/22 01:22:22;;;;;;;4.00;1.10;;;10.90;99.90;;;;;;4975612;28;20199;-81
2021/10/22 01:24:49;;;;;;;3.90;0.90;;;10.90;99.90;;;;;;4978235;28;20239;-80
2021/10/22 01:27:15;;;;;;;2.60;1.07;;;11.00;99.90;;;;;;4978276;28;20174;-80
2021/10/22 01:29:40;;;;;;;3.23;0.90;;;11.00;99.90;;;;;;4978447;28;20182;-80
2021/10/22 01:32:06;;;;;;;3.80;0.80;;;10.90;99.90;;;;;;4978012;28;20214;-80
2021/10/22 01:34:32;;;;;;;4.17;0.93;;;10.90;99.90;;;;;;4978350;28;20537;-80
2021/10/22 01:36:57;;;;;;;4.73;0.87;;;10.90;99.90;;;;;;4983791;28;20183;-80
2021/10/22 01:39:23;;;;;;;4.23;0.90;;;10.90;99.90;;;;;;4983327;28;20208;-80
2021/10/22 01:41:49;;;;;;;1.87;0.77;;;11.00;99.90;;;;;;4981592;28;20174;-80
2021/10/22 01:44:16;;;;;;;1.73;0.90;;;10.90;99.90;;;;;;4979112;28;20179;-80
2021/10/22 01:46:42;;;;;;;3.53;0.90;;;11.00;99.90;;;;;;4993197;28;20227;-80
2021/10/22 01:49:08;;;;;;;4.60;1.20;;;11.00;99.90;;;;;;4992630;28;20184;-79
2021/10/22 01:51:34;;;;;;;2.47;0.93;;;11.00;99.90;;;;;;4973567;28;20188;-80
2021/10/22 01:54:00;;;;;;;2.40;0.87;;;11.00;99.90;;;;;;4964444;28;20300;-80
2021/10/22 01:56:25;;;;;;;4.70;1.27;;;11.00;99.90;;;;;;4976517;28;20271;-80
2021/10/22 01:58:51;;;;;;;4.70;1.10;;;11.10;99.90;;;;;;4975490;28;20180;-80
2021/10/22 02:01:18;;;;;;;5.53;0.93;;;11.00;99.90;;;;;;4978204;28;20219;-80
2021/10/22 02:03:43;;;;;;;2.83;1.03;;;10.80;99.90;;;;;;4977727;28;20193;-80
2021/10/22 02:06:09;;;;;;;3.80;0.97;;;10.90;99.90;;;;;;4977180;28;20262;-80
2021/10/22 02:08:34;;;;;;;4.57;1.20;;;10.90;99.90;;;;;;4993089;28;20173;-80
2021/10/22 02:11:00;;;;;;;4.90;1.53;;;10.80;99.90;;;;;;4977877;28;20193;-80
2021/10/22 02:13:26;;;;;;;2.73;1.10;;;10.80;99.90;;;;;;4980416;28;20206;-80
2021/10/22 02:15:52;;;;;;;3.93;1.60;;;10.80;99.90;;;;;;4981918;28;20243;-80
2021/10/22 02:18:18;;;;;;;3.80;1.17;;;10.80;99.90;;;;;;4981225;28;20265;-80
2021/10/22 02:20:43;;;;;;;2.63;1.10;;;10.90;99.90;;;;;;4982183;28;20246;-80
2021/10/22 02:23:09;;;;;;;4.67;1.10;;;10.90;99.90;;;;;;4981046;28;20195;-80
2021/10/22 02:25:35;;;;;;;6.10;1.10;;;10.70;99.90;;;;;;4981680;28;20230;-80
2021/10/22 02:28:00;;;;;;;3.53;1.00;;;10.70;99.90;;;;;;4981216;28;20175;-80
2021/10/22 02:30:27;;;;;;;4.37;1.07;;;10.80;99.90;;;;;;4981141;28;20176;-80
2021/10/22 02:32:53;;;;;;;2.60;0.73;;;10.80;99.90;;;;;;4995980;28;20199;-80
2021/10/22 02:35:18;;;;;;;3.80;1.10;;;10.70;99.90;;;;;;4981401;28;20265;-80
2021/10/22 02:37:45;;;;;;;4.03;1.00;;;10.80;99.90;;;;;;4981611;28;20544;-80
2021/10/22 02:40:12;;;;;;;3.07;1.00;;;10.90;99.90;;;;;;4981260;28;20210;-80
2021/10/22 02:42:38;;;;;;;4.17;1.53;;;10.90;99.90;;;;;;4986187;28;20218;-81
2021/10/22 02:45:05;;;;;;;2.77;1.00;;;10.90;99.90;;;;;;4990429;28;20176;-80
2021/10/22 02:47:30;;;;;;;4.40;1.00;;;10.80;99.90;;;;;;4981811;28;20210;-80
2021/10/22 02:49:56;;;;;;;2.77;0.90;;;10.80;99.90;;;;;;4995814;28;20190;-80
2021/10/22 02:52:22;;;;;;;1.50;0.77;;;10.80;99.90;;;;;;4981075;28;20219;-80
2021/10/22 02:54:47;;;;;;;4.60;1.07;;;10.80;99.90;;;;;;4997117;28;20190;-80
2021/10/22 02:57:13;;;;;;;1.80;0.90;;;10.90;99.90;;;;;;4980107;28;20185;-80
2021/10/22 02:59:39;;;;;;;2.53;0.90;;;10.80;99.90;;;;;;4980662;28;20199;-80
2021/10/22 03:02:05;;;;;;;3.23;0.73;;;10.80;99.90;;;;;;4996170;28;20575;-80
2021/10/22 03:04:30;;;;;;;1.93;0.63;;;10.90;99.90;;;;;;4981098;28;20189;-80
2021/10/22 03:06:56;;;;;;;3.70;0.90;;;10.80;99.90;;;;;;4980724;28;20215;-80
2021/10/22 03:09:22;;;;;;;2.27;0.80;;;10.70;99.90;;;;;;4980785;28;20658;-80
2021/10/22 03:11:47;;;;;;;4.80;0.90;;;10.70;99.90;;;;;;4980674;28;20229;-80
2021/10/22 03:14:13;;;;;;;2.73;1.07;;;10.60;99.90;;;;;;4980578;28;20190;-80
2021/10/22 03:16:42;;;;;;;1.17;0.70;;;10.70;99.90;;;;;;4979953;28;20659;-80
2021/10/22 03:19:07;;;;;;;3.27;0.60;;;10.80;99.90;;;;;;4980833;28;20198;-80
2021/10/22 03:21:33;;;;;;;2.83;0.50;;;10.90;99.90;;;;;;4980318;28;20247;-80
2021/10/22 03:23:58;;;;;;;3.00;0.90;;;10.90;99.90;;;;;;4980380;28;20757;-80
2021/10/22 03:26:24;;;;;;;2.60;0.70;;;11.00;99.90;;;;;;4980466;28;20662;-80
2021/10/22 03:28:50;;;;;;;1.40;0.30;;;10.90;99.90;;;;;;4980748;28;20180;-80
2021/10/22 03:31:16;;;;;;;2.27;0.50;;;10.90;99.90;;;;;;4995519;28;20179;-80
2021/10/22 03:33:42;;;;;;;1.77;0.53;;;10.90;99.90;;;;;;4980148;28;20197;-80
2021/10/22 03:36:07;;;;;;;1.80;0.50;;;10.80;99.90;;;;;;4978855;28;20184;-80
2021/10/22 03:38:33;;;;;;;2.10;0.60;;;10.90;99.90;;;;;;4981007;28;20183;-80
2021/10/22 03:40:59;;;;;;;1.17;0.60;;;10.90;99.90;;;;;;4980285;28;20756;-80
2021/10/22 03:43:24;;;;;;;1.77;0.47;;;11.00;99.90;;;;;;4980203;28;20197;-79
2021/10/22 03:45:50;;;;;;;2.23;0.80;;;10.90;99.90;;;;;;4994175;28;20192;-79
2021/10/22 03:48:15;;;;;;;0.90;0.60;;;10.90;99.90;;;;;;4977300;28;20219;-80
2021/10/22 03:50:41;;;;;;;0.90;0.60;;;11.00;99.90;;;;;;4992792;28;20195;-78
2021/10/22 03:53:07;;;;;;;1.23;0.37;;;10.90;99.90;;;;;;4993517;28;20227;-80
2021/10/22 03:55:33;;;;;;;0.20;0.20;;;10.90;99.90;;;;;;4979614;28;20186;-80
2021/10/22 03:57:58;;;;;;;0.77;0.30;;;10.80;99.90;;;;;;4979224;28;20176;-80
2021/10/22 04:00:24;;;;;;;0.40;0.20;;;10.80;99.90;;;;;;4977529;28;20261;-80
2021/10/22 04:02:50;;;;;;;1.03;0.30;;;10.80;99.90;;;;;;4972655;28;20203;-78
2021/10/22 04:05:16;;;;;;;0.13;0.13;;;10.80;99.90;;;;;;4973573;28;20209;-80
2021/10/22 04:07:41;;;;;;;0.10;0.10;;;10.70;99.90;;;;;;4974851;28;20216;-79
2021/10/22 04:10:08;;;;;;;0.50;0.50;;;10.70;99.90;;;;;;4971282;28;20180;-80
2021/10/22 04:12:34;;;;;;;0.20;0.10;;;10.70;99.90;;;;;;4977511;28;20210;-80
2021/10/22 04:15:00;;;;;;;0.20;0.20;;;10.60;99.90;;;;;;4975979;28;20194;-80
2021/10/22 04:17:25;;;;;;;0.40;0.20;;;10.60;99.90;;;;;;4977151;28;20191;-80
2021/10/22 04:19:51;;;;;;;0.30;0.10;;;10.60;99.90;;;;;;4992753;28;20688;-80
2021/10/22 04:22:17;;;;;;;0.17;0.17;;;10.50;99.90;;;;;;4977956;28;20195;-80
2021/10/22 04:24:43;;;;;;;0.70;0.20;;;10.50;99.90;;;;;;4979193;28;20230;-80
2021/10/22 04:27:09;;;;;;;0.50;0.23;;;10.40;99.90;;;;;;4979102;28;20270;-80
2021/10/22 04:29:34;;;;;;;0.67;0.37;;;10.30;99.90;;;;;;4992885;28;20194;-80
2021/10/22 04:32:00;;;;;;;0.23;0.23;;;10.30;99.90;;;;;;4978120;28;20606;-80
2021/10/22 04:34:28;;;;;;;0.53;0.27;;;10.20;99.90;;;;;;4977626;28;20183;-80
2021/10/22 04:37:01;;;;;;;0.30;0.30;;;10.10;99.90;;;;;;4978200;28;20191;-80
2021/10/22 04:42:11;;;;;;;0.30;0.30;;;10.10;99.90;;;;;;4978052;28;20701;-80
2021/10/22 04:44:37;;;;;;;0.30;0.23;;;10.10;99.90;;;;;;4976987;28;20179;-80
2021/10/22 04:47:03;;;;;;;0.77;0.33;;;10.10;99.90;;;;;;4977178;28;20664;-80
2021/10/22 04:49:29;;;;;;;1.17;0.50;;;10.10;99.90;;;;;;4977768;28;20262;-80
2021/10/22 04:51:55;;;;;;;0.50;0.40;;;10.20;99.90;;;;;;4980106;28;20202;-80
2021/10/22 04:54:21;;;;;;;0.70;0.60;;;10.10;99.90;;;;;;4977879;28;20270;-80
2021/10/22 04:56:46;;;;;;;1.63;0.40;;;10.10;99.90;;;;;;4977927;28;20548;-80
2021/10/22 04:59:12;;;;;;;0.70;0.50;;;10.10;99.90;;;;;;4977592;28;20195;-80
2021/10/22 05:01:37;;;;;;;0.63;0.50;;;10.10;99.90;;;;;;4975863;28;20184;-80
2021/10/22 05:04:03;;;;;;;0.37;0.37;;;10.20;99.90;;;;;;4977859;28;20196;-80
2021/10/22 05:06:29;;;;;;;1.17;0.50;;;10.10;99.90;;;;;;4978136;28;20180;-81
2021/10/22 05:08:54;;;;;;;0.30;0.30;;;10.20;99.90;;;;;;4976868;28;20205;-80
2021/10/22 05:11:20;;;;;;;0.40;0.40;;;10.20;99.90;;;;;;4979008;28;20234;-80
2021/10/22 05:13:46;;;;;;;1.40;0.40;;;10.20;99.90;;;;;;4977724;28;20217;-80
2021/10/22 05:16:11;;;;;;;0.50;0.50;;;10.10;99.90;;;;;;4978892;28;20564;-80
2021/10/22 05:18:37;;;;;;;0.57;0.47;;;10.00;99.90;;;;;;4974231;28;20190;-80
2021/10/22 05:21:02;;;;;;;0.67;0.50;;;10.00;99.90;;;;;;4978792;28;20219;-80
2021/10/22 05:23:28;;;;;;;0.63;0.53;;;9.90;99.90;;;;;;4979194;28;20231;-80
2021/10/22 05:25:54;;;;;;;1.73;1.57;;;9.90;99.90;;;;;;4978666;28;20261;-80
2021/10/22 05:28:19;;;;;;;2.70;2.03;;;9.80;99.90;;;;;;4979320;28;20579;-80
2021/10/22 05:30:45;;;;;;;5.60;2.47;;;9.80;99.90;;;;;;4993448;28;20230;-80
2021/10/22 05:33:12;;;;;;;4.03;2.97;;;9.80;99.90;;;;;;4978966;28;20214;-80
2021/10/22 05:35:38;;;;;;;1.53;0.90;;;9.70;99.90;;;;;;4978423;28;20194;-80
2021/10/22 05:38:05;;;;;;;4.17;1.53;;;9.70;99.90;;;;;;4978858;28;20185;-80
2021/10/22 05:40:31;;;;;;;1.00;0.80;;;9.80;99.90;;;;;;4977531;28;20208;-79
2021/10/22 05:42:56;;;;;;;0.80;0.50;;;9.70;99.90;;;;;;4960768;28;20211;-80
2021/10/22 05:45:22;;;;;;;0.90;0.50;;;9.70;99.90;;;;;;4976362;28;20710;-80
2021/10/22 05:47:47;;;;;;;1.73;0.47;;;9.80;99.90;;;;;;4962691;28;20214;-80
2021/10/22 05:50:13;;;;;;;0.60;0.40;;;9.70;99.90;;;;;;4962930;28;20608;-80
2021/10/22 05:52:39;;;;;;;1.40;0.80;;;9.70;99.90;;;;;;4976437;28;20221;-80
2021/10/22 05:55:05;;;;;;;1.07;0.60;;;9.70;99.90;;;;;;4963627;28;20187;-80
2021/10/22 05:57:31;;;;;;;1.37;0.80;;;9.70;99.90;;;;;;4965180;28;20183;-80
2021/10/22 05:59:56;;;;;;;1.43;0.57;;;9.70;99.90;;;;;;4964645;28;20588;-79
2021/10/22 06:02:22;;;;;;;0.60;0.60;;;9.70;99.90;;;;;;4962442;28;20209;-80
2021/10/22 06:04:48;;;;;;;2.50;1.70;;;9.80;99.90;;;;;;4966504;28;20206;-79
2021/10/22 06:07:13;;;;;;;0.57;0.57;;;9.70;99.90;;;;;;4973672;28;20192;-80
2021/10/22 06:09:39;;;;;;;0.80;0.80;;;9.70;99.90;;;;;;4982224;28;20187;-80
2021/10/22 06:12:05;;;;;;;1.60;0.70;;;9.70;99.90;;;;;;4996897;28;20233;-80
2021/10/22 06:14:31;;;;;;;0.70;0.70;;;9.70;99.90;;;;;;4981630;28;20274;-80
2021/10/22 06:16:57;;;;;;;1.10;0.70;;;9.70;99.90;;;;;;4982758;28;20191;-80
2021/10/22 06:19:27;;;;;;;1.37;0.90;;;9.60;99.90;;;;;;4981132;28;20633;-80
2021/10/22 06:22:52;;;;;;;1.07;0.70;;;9.60;99.90;;;;;;4981223;28;20634;-80
2021/10/22 06:24:39;;;;;;;0.87;0.73;;;9.60;99.90;;;;;;4980885;28;20223;-80
2021/10/22 06:27:05;;;;;;;1.90;1.23;;;9.60;99.90;;;;;;4996580;28;20190;-79
2021/10/22 06:29:31;;;;;;;2.37;0.80;;;9.70;99.90;;;;;;4981294;28;20236;-80
2021/10/22 06:31:57;;;;;;;1.30;0.60;;;9.70;99.90;;;;;;4979799;28;20188;-80
2021/10/22 06:34:26;;;;;;;0.90;0.80;;;9.60;99.90;;;;;;4981750;28;20225;-80
2021/10/22 06:36:52;;;;;;;1.33;0.80;;;9.60;99.90;;;;;;4981725;28;20270;-80
2021/10/22 06:39:18;;;;;;;1.13;0.70;;;9.60;99.90;;;;;;4976729;28;20738;-80
2021/10/22 06:41:43;;;;;;;1.23;1.00;;;9.60;99.90;;;;;;4976959;28;20179;-80
2021/10/22 06:44:09;;;;;;;1.13;1.00;;;9.70;99.90;;;;;;4969643;28;20175;-80
2021/10/22 06:46:35;;;;;;;1.57;1.17;;;9.70;99.90;;;;;;4977064;28;20190;-80
2021/10/22 06:49:01;;;;;;;2.13;1.20;;;9.60;99.90;;;;;;4993010;28;20182;-80
2021/10/22 06:51:27;;;;;;;1.13;1.00;;;9.60;99.90;;;;;;4996235;28;20222;-80
2021/10/22 06:53:52;;;;;;;1.10;1.00;;;9.60;99.90;;;;;;4983403;28;20220;-80
2021/10/22 06:56:18;;;;;;;1.80;1.20;;;9.70;99.90;;;;;;4976399;28;20232;-78
2021/10/22 06:58:44;;;;;;;1.23;1.03;;;9.70;99.90;;;;;;4982678;28;20173;-80
2021/10/22 07:01:10;;;;;;;4.20;1.37;;;9.70;99.90;;;;;;4983781;28;20209;-79
2021/10/22 07:03:39;;;;;;;1.40;1.20;;;9.70;99.90;;;;;;4987883;28;20286;-80
2021/10/22 07:08:54;;;;;;;1.73;1.00;;;9.60;99.90;;;;;;4985374;28;20728;-80
2021/10/22 07:11:21;;;;;;;1.87;1.10;;;9.60;99.90;;;;;;4977618;28;20183;-80
2021/10/22 07:13:54;;;;;;;1.80;1.17;;;9.60;99.90;;;;;;4983699;28;20193;-79
2021/10/22 07:16:22;;;;;;;1.33;1.00;;;9.50;99.90;;;;;;4976009;28;20241;-79
2021/10/22 07:18:50;;;;;;;1.83;1.00;;;9.60;99.90;;;;;;4989080;28;20191;-79
2021/10/22 07:21:17;;;;;;;1.10;0.90;;;9.60;99.90;;;;;;4996976;28;20632;-79
2021/10/22 07:23:45;;;;;;;2.93;1.20;;;9.50;99.90;;;;;;4998767;28;20222;-79
2021/10/22 07:26:11;;;;;;;1.77;1.10;;;9.50;99.90;;;;;;4978885;28;20669;-79
2021/10/22 07:28:36;;;;;;;1.13;1.03;;;9.50;99.90;;;;;;5000533;23;20240;-79
2021/10/22 07:31:03;;;;;;;2.07;1.30;;;9.50;99.90;;;;;;5011971;28;20185;-76
2021/10/22 07:33:28;;;;;;;1.00;0.90;;;9.60;99.90;;;;;;5016859;28;20255;-78
2021/10/22 07:35:56;;;;;;;1.40;1.30;;;9.60;99.90;;;;;;5005412;28;20211;-77
2021/10/22 07:38:22;;;;;;;3.67;1.30;;;9.60;99.90;;;;;;5012293;28;20225;-77
2021/10/22 07:40:48;;;;;;;1.73;1.60;;;9.60;99.90;;;;;;4986116;28;20252;-78
2021/10/22 07:43:17;;;;;;;2.60;1.30;;;9.80;99.90;;;;;;4999948;28;20231;-78
2021/10/22 07:45:43;;;;;;;1.60;1.50;;;9.70;99.90;;;;;;4999554;28;20186;-78
2021/10/22 07:48:09;;;;;;;3.30;1.60;;;9.70;99.90;;;;;;5000798;28;20175;-78
2021/10/22 07:50:35;;;;;;;2.33;1.60;;;9.80;99.90;;;;;;4999298;28;20209;-78
2021/10/22 07:53:01;;;;;;;2.07;1.90;;;9.70;99.90;;;;;;4999457;28;20191;-78
2021/10/22 07:55:27;;;;;;;3.23;2.10;;;9.80;99.90;;;;;;5001394;28;20648;-78
2021/10/22 07:57:52;;;;;;;2.20;2.00;;;9.90;99.90;;;;;;5000339;28;20198;-76
2021/10/22 08:00:19;;;;;;;2.67;1.83;;;9.90;99.90;;;;;;5000215;28;20214;-78
2021/10/22 08:02:45;;;;;;;2.83;2.00;;;9.90;99.90;;;;;;5000106;28;20177;-78
2021/10/22 08:05:10;;;;;;;2.80;2.50;;;10.00;99.90;;;;;;5000429;28;20650;-78
2021/10/22 08:07:38;;;;;;;3.60;2.93;;;10.00;99.90;;;;;;4999456;28;20660;-78
2021/10/22 08:10:06;;;;;;;3.37;2.10;;;10.00;99.90;;;;;;4998695;28;20289;-79
2021/10/22 08:12:32;;;;;;;2.40;2.03;;;10.00;99.90;;;;;;5001340;28;20603;-78
2021/10/22 08:14:58;;;;;;;1.80;1.50;;;10.00;99.90;;;;;;4997593;28;20183;-78
2021/10/22 08:17:24;;;;;;;1.30;1.20;;;9.90;99.90;;;;;;4999305;28;20725;-78
2021/10/22 08:19:58;;;;;;;1.80;1.60;;;9.90;99.90;;;;;;4999091;28;20211;-78
2021/10/22 08:22:27;;;;;;;2.33;1.70;;;10.00;99.90;;;;;;4999634;28;20184;-78
2021/10/22 08:25:13;;;;;;;1.70;1.43;;;10.10;99.90;;;;;;4998733;28;20179;-78
2021/10/22 08:27:44;;;;;;;2.67;1.37;;;10.20;99.90;;;;;;5000050;28;20173;-78
2021/10/22 08:30:15;;;;;;;1.20;1.10;;;10.10;99.90;;;;;;4998753;28;20309;-78
2021/10/22 08:32:42;;;;;;;1.30;1.10;;;10.30;99.90;;;;;;4998900;28;20246;-79
2021/10/22 08:35:08;;;;;;;2.20;0.90;;;10.20;99.90;;;;;;4999684;28;20189;-78
2021/10/22 08:37:36;;;;;;;2.07;1.20;;;10.10;99.90;;;;;;4999069;28;20183;-78
2021/10/22 08:40:03;;;;;;;1.30;1.13;;;10.10;99.90;;;;;;4999743;28;20206;-78
2021/10/22 08:42:29;;;;;;;2.80;1.20;;;10.20;99.90;;;;;;4999671;28;20178;-77
2021/10/22 08:44:55;;;;;;;1.53;0.90;;;10.20;99.90;;;;;;4999369;28;20179;-78
2021/10/22 08:47:28;;;;;;;1.57;0.90;;;10.30;99.90;;;;;;4999666;28;20210;-78
2021/10/22 08:49:58;;;;;;;1.40;0.83;;;10.40;99.90;;;;;;4998807;28;20199;-78
2021/10/22 08:52:25;;;;;;;1.00;0.40;;;10.40;99.90;;;;;;4996975;28;20257;-78
2021/10/22 08:54:51;;;;;;;2.30;0.93;;;10.30;99.90;;;;;;4997985;28;20182;-76
2021/10/22 08:57:16;;;;;;;0.97;0.57;;;10.30;99.90;;;;;;4997325;28;20187;-77
2021/10/22 08:59:42;;;;;;;1.80;0.80;;;10.30;99.90;;;;;;4997531;28;20252;-78
2021/10/22 09:02:25;;;;;;;1.37;0.50;;;10.30;99.90;;;;;;4999049;28;20175;-79
2021/10/22 09:04:53;;;;;;;0.83;0.60;;;10.40;99.90;;;;;;5000488;28;20182;-78
2021/10/22 09:07:21;;;;;;;2.63;0.83;;;10.40;99.90;;;;;;5000536;28;20177;-79
2021/10/22 09:10:11;;;;;;;1.47;0.80;;;10.40;99.90;;;;;;5000825;28;20194;-79
2021/10/22 09:12:42;;;;;;;2.27;1.00;;;10.40;99.90;;;;;;4999333;28;20208;-78
2021/10/22 09:15:08;;;;;;;1.67;0.70;;;10.50;99.90;;;;;;5000240;28;20184;-78
2021/10/22 09:17:39;;;;;;;1.20;0.60;;;10.40;99.90;;;;;;4999739;28;20232;-78
2021/10/22 09:20:07;;;;;;;2.57;1.10;;;10.40;99.90;;;;;;5000235;28;20226;-79
2021/10/22 09:22:34;;;;;;;1.03;0.83;;;10.40;99.90;;;;;;4998111;28;20209;-79
2021/10/22 09:25:06;;;;;;;2.30;0.80;;;10.40;99.90;;;;;;4991207;28;20182;-78
2021/10/22 09:27:54;;;;;;;2.87;1.00;;;10.50;99.90;;;;;;4999808;28;20189;-78
2021/10/22 09:30:23;;;;;;;2.17;1.03;;;10.40;99.90;;;;;;4997521;28;20703;-78
2021/10/22 09:32:53;;;;;;;2.03;0.90;;;10.40;99.90;;;;;;4995809;28;20183;-78
2021/10/22 09:35:34;;;;;;;1.43;0.80;;;10.40;99.90;;;;;;4999181;28;20211;-78
2021/10/22 09:38:07;;;;;;;1.53;0.80;;;10.40;99.90;;;;;;4998570;28;20178;-78
2021/10/22 09:40:33;;;;;;;3.87;0.93;;;10.50;99.90;;;;;;4997976;28;20622;-78
2021/10/22 09:43:17;;;;;;;1.67;0.70;;;10.50;99.90;;;;;;4999426;28;20237;-78
2021/10/22 09:45:45;;;;;;;2.40;1.40;;;10.50;99.90;;;;;;4998766;28;20209;-79
2021/10/22 09:48:32;;;;;;;1.27;0.80;;;10.50;99.90;;;;;;4998266;28;20260;-78
2021/10/22 09:51:21;;;;;;;4.07;0.90;;;10.50;99.90;;;;;;5000726;28;20178;-78
2021/10/22 09:53:48;;;;;;;1.67;0.77;;;10.50;99.90;;;;;;4999880;28;20193;-78
2021/10/22 09:56:22;;;;;;;2.77;0.83;;;10.50;99.90;;;;;;4999964;28;20176;-78
2021/10/22 09:59:05;;;;;;;0.90;0.43;;;10.50;99.90;;;;;;4999062;28;20224;-78
2021/10/22 10:01:42;;;;;;;2.70;0.80;;;10.40;99.90;;;;;;4998794;28;20190;-78
2021/10/22 10:04:12;;;;;;;1.83;0.77;;;10.40;99.90;;;;;;4998377;28;20607;-77
2021/10/22 10:06:40;;;;;;;1.57;0.80;;;10.60;99.90;;;;;;5000273;28;20657;-78
2021/10/22 10:09:08;;;;;;;2.93;0.73;;;10.50;99.90;;;;;;4998879;28;20195;-78
2021/10/22 10:11:36;;;;;;;2.43;0.93;;;10.70;99.90;;;;;;5000306;28;20580;-78
2021/10/22 10:14:02;;;;;;;1.30;0.50;;;10.70;99.90;;;;;;5000330;28;20183;-79
2021/10/22 10:16:31;;;;;;;0.83;0.40;;;10.70;99.90;;;;;;5000148;28;20186;-78
2021/10/22 10:19:07;;;;;;;0.50;0.40;;;10.80;99.90;;;;;;4999642;28;20226;-79
2021/10/22 10:21:42;;;;;;;2.50;0.50;;;10.80;99.90;;;;;;4995295;28;20182;-79
2021/10/22 10:24:10;;;;;;;1.17;0.60;;;10.70;99.90;;;;;;4999208;28;20175;-78
2021/10/22 10:26:36;;;;;;;1.23;0.40;;;10.60;99.90;;;;;;5000164;28;20179;-79
2021/10/22 10:29:05;;;;;;;1.83;0.60;;;10.70;99.90;;;;;;4998133;28;20213;-79
2021/10/22 10:31:36;;;;;;;1.33;0.60;;;10.80;99.90;;;;;;5000114;28;20205;-78
2021/10/22 10:34:23;;;;;;;1.63;0.50;;;10.80;99.90;;;;;;5001041;28;20720;-78
2021/10/22 10:36:51;;;;;;;2.83;0.90;;;10.90;99.90;;;;;;5004423;28;20583;-78
2021/10/22 10:39:40;;;;;;;1.03;0.60;;;11.00;99.90;;;;;;5009592;28;20200;-78
2021/10/22 10:42:34;;;;;;;1.70;0.60;;;11.10;99.90;;;;;;5001569;28;20175;-78
2021/10/22 10:45:17;;;;;;;0.87;0.50;;;11.10;99.90;;;;;;5002704;28;20184;-78
2021/10/22 10:48:29;;;;;;;1.50;0.50;;;11.10;99.90;;;;;;5002945;28;20199;-78
2021/10/22 10:51:07;;;;;;;1.23;0.50;;;11.00;99.90;;;;;;5001914;28;20689;-78
2021/10/22 10:53:42;;;;;;;5.53;0.60;;;11.00;99.90;;;;;;5003020;28;20184;-77
2021/10/22 10:56:31;;;;;;;0.60;0.40;;;11.00;99.90;;;;;;5001868;28;20176;-79
2021/10/22 10:58:57;;;;;;;0.90;0.60;;;11.00;99.90;;;;;;5002866;28;20781;-78
2021/10/22 11:01:28;;;;;;;0.70;0.50;;;11.00;99.90;;;;;;5002416;28;20203;-78
2021/10/22 11:03:55;;;;;;;2.67;0.70;;;11.00;99.90;;;;;;5002643;28;20187;-79
2021/10/22 11:06:49;;;;;;;1.13;0.77;;;11.00;99.90;;;;;;5003321;28;20230;-78
2021/10/22 11:09:16;;;;;;;0.87;0.47;;;10.90;99.90;;;;;;5001675;28;20615;-78
2021/10/22 11:11:42;;;;;;;1.70;0.90;;;10.80;99.90;;;;;;5003590;28;20175;-78
2021/10/22 11:14:08;;;;;;;1.87;0.60;;;10.90;99.90;;;;;;5001124;28;20179;-79
2021/10/22 11:16:45;;;;;;;0.87;0.47;;;10.90;99.90;;;;;;5002491;28;20200;-79
2021/10/22 11:19:17;;;;;;;0.87;0.27;;;11.00;99.90;;;;;;5001599;28;20208;-79
2021/10/22 11:21:47;;;;;;;0.90;0.50;;;11.10;99.90;;;;;;5003321;28;20201;-79
2021/10/22 11:24:24;;;;;;;1.87;0.60;;;11.20;99.90;;;;;;5001963;28;20238;-78
2021/10/22 11:27:01;;;;;;;2.20;0.70;;;11.20;99.90;;;;;;5003271;28;20211;-79
2021/10/22 11:29:29;;;;;;;1.37;0.60;;;11.30;99.90;;;;;;5003413;28;20224;-79
2021/10/22 11:31:57;;;;;;;0.80;0.70;;;11.20;99.90;;;;;;5001717;28;20665;-79
2021/10/22 11:34:36;;;;;;;1.27;0.40;;;11.40;99.90;;;;;;5002944;28;20179;-79
2021/10/22 11:37:06;;;;;;;1.47;0.53;;;11.40;99.90;;;;;;5001644;28;20181;-79
2021/10/22 11:39:34;;;;;;;1.57;0.90;;;11.50;99.90;;;;;;5002806;28;20207;-78
2021/10/22 11:42:02;;;;;;;2.47;1.20;;;11.50;99.90;;;;;;5000334;28;20174;-79
2021/10/22 11:44:27;;;;;;;0.70;0.50;;;11.60;99.90;;;;;;5000424;28;20232;-79
2021/10/22 11:46:53;;;;;;;0.47;0.40;;;11.60;99.90;;;;;;5001701;28;20232;-78
2021/10/22 11:49:33;;;;;;;0.77;0.50;;;11.70;99.90;;;;;;5000882;28;20702;-78
2021/10/22 11:52:00;;;;;;;2.63;0.70;;;11.70;99.90;;;;;;5001145;28;20179;-78
2021/10/22 11:54:34;;;;;;;1.30;0.53;;;11.60;99.90;;;;;;5000280;28;20182;-79
2021/10/22 11:57:08;;;;;;;5.23;0.70;;;11.50;99.90;;;;;;5001658;28;20548;-79
2021/10/22 11:59:33;;;;;;;1.07;0.60;;;11.50;99.90;;;;;;5000915;28;20673;-78
2021/10/22 12:02:07;;;;;;;0.80;0.60;;;11.50;99.90;;;;;;5000910;28;20270;-78
2021/10/22 12:04:33;;;;;;;1.10;0.60;;;11.50;99.90;;;;;;5001499;28;20174;-79
2021/10/22 12:07:04;;;;;;;0.93;0.67;;;11.70;99.90;;;;;;5001161;28;20224;-79
2021/10/22 12:09:32;;;;;;;1.27;0.60;;;11.80;99.90;;;;;;5001687;28;20204;-79
2021/10/22 12:12:08;;;;;;;0.40;0.40;;;11.80;99.90;;;;;;5000680;28;20187;-78
2021/10/22 12:14:39;;;;;;;1.10;0.53;;;11.70;99.90;;;;;;5001323;28;20185;-79
2021/10/22 12:17:07;;;;;;;1.00;0.57;;;11.90;99.90;;;;;;4994272;28;20186;-80
2021/10/22 12:19:33;;;;;;;1.73;0.67;;;11.90;99.90;;;;;;5000013;28;20217;-79
2021/10/22 12:21:59;;;;;;;0.87;0.60;;;11.80;99.90;;;;;;5001524;28;20183;-79
2021/10/22 12:24:37;;;;;;;1.30;0.70;;;11.90;99.90;;;;;;5001745;28;20177;-79
2021/10/22 12:27:05;;;;;;;1.60;0.80;;;12.00;99.90;;;;;;5002213;28;20652;-80
2021/10/22 12:29:50;;;;;;;1.60;0.50;;;12.10;99.90;;;;;;5002568;28;20216;-79
2021/10/22 12:32:39;;;;;;;0.90;0.70;;;12.20;99.90;;;;;;5002523;28;20233;-79
2021/10/22 12:35:14;;;;;;;1.47;1.00;;;12.20;99.90;;;;;;5002142;28;20187;-79
2021/10/22 12:37:42;;;;;;;1.90;1.00;;;12.30;99.90;;;;;;5001049;28;20208;-79
2021/10/22 12:40:32;;;;;;;2.80;1.00;;;12.30;99.90;;;;;;5014042;28;20202;-79
2021/10/22 12:43:11;;;;;;;1.97;1.00;;;12.20;99.90;;;;;;5001369;28;20253;-79
2021/10/22 12:46:04;;;;;;;3.53;1.23;;;12.30;99.90;;;;;;5002467;28;20175;-78
2021/10/22 12:48:38;;;;;;;1.37;0.80;;;12.40;99.90;;;;;;4995950;28;20564;-79
2021/10/22 12:51:08;;;;;;;1.77;1.40;;;12.30;99.90;;;;;;5002074;28;20635;-79
2021/10/22 12:53:41;;;;;;;2.10;1.10;;;12.30;99.90;;;;;;5000954;28;20191;-79
2021/10/22 12:56:14;;;;;;;1.50;0.60;;;12.20;99.90;;;;;;5002326;28;20183;-78
2021/10/22 12:58:53;;;;;;;1.87;0.90;;;12.40;99.90;;;;;;5000483;28;20207;-79
2021/10/22 13:01:19;;;;;;;1.90;0.80;;;12.40;99.90;;;;;;5002832;28;20200;-79